Time;durP1;ratioP1;P1;durP2;ratioP2;P2;SDS_P1;SDS_P2;PMS_P1;PMS_P2;Temp;Humidity;BMP_temperature;BMP_pressure;BME280_temperature;BME280_humidity;BME280_pressure;Samples;Min_cycle;Max_cycle;Signal;HPM_P1;HPM_P2
2023/07/18 00:00:43;;;;;;;12.47;2.70;;;;;;;14.96;100.00;155154.69;4915623;29;20032;-74
2023/07/18 00:03:15;;;;;;;6.43;2.20;;;;;;;14.94;100.00;155149.50;4915093;29;20032;-74
2023/07/18 00:05:41;;;;;;;16.23;2.40;;;;;;;14.88;100.00;155133.94;4916953;29;20107;-73
2023/07/18 00:08:06;;;;;;;12.00;2.30;;;;;;;14.77;100.00;155105.31;4894859;29;20540;-74
2023/07/18 00:10:32;;;;;;;6.43;1.90;;;;;;;14.73;100.00;155094.97;4916620;29;20500;-73
2023/07/18 00:12:58;;;;;;;16.50;3.10;;;;;;;14.63;100.00;155070.25;4897759;29;20469;-74
2023/07/18 00:15:28;;;;;;;6.40;1.60;;;;;;;14.64;100.00;155071.56;4916424;29;20110;-74
2023/07/18 00:17:54;;;;;;;13.25;2.65;;;;;;;14.60;100.00;155062.47;4920244;29;20032;-74
2023/07/18 00:20:22;;;;;;;5.97;2.00;;;;;;;14.53;100.00;155044.31;4902559;29;20060;-74
2023/07/18 00:22:49;;;;;;;7.22;1.90;;;;;;;14.51;100.00;155037.81;4915448;29;20071;-74
2023/07/18 00:25:18;;;;;;;8.60;1.90;;;;;;;14.46;100.00;155026.09;4915302;29;20064;-74
2023/07/18 00:27:44;;;;;;;10.38;1.98;;;;;;;14.46;100.00;155024.84;4911909;29;20032;-74
2023/07/18 00:30:14;;;;;;;12.70;2.00;;;;;;;14.45;100.00;155023.50;4915498;29;20036;-74
2023/07/18 00:32:42;;;;;;;7.07;2.40;;;;;;;14.48;100.00;155031.31;4888029;29;20115;-74
2023/07/18 00:35:08;;;;;;;4.88;1.98;;;;;;;14.41;100.00;155013.13;4915249;29;20469;-73
2023/07/18 00:37:34;;;;;;;9.95;2.58;;;;;;;14.44;100.00;155019.59;4904581;29;20034;-74
2023/07/18 00:39:59;;;;;;;8.47;2.23;;;;;;;14.52;100.00;155040.41;4896041;29;20036;-73
2023/07/18 00:42:25;;;;;;;6.00;1.63;;;;;;;14.57;100.00;155054.66;4914716;29;20060;-74
2023/07/18 00:44:51;;;;;;;8.10;2.07;;;;;;;14.61;100.00;155063.75;4916201;29;20115;-74
2023/07/18 00:47:17;;;;;;;12.03;2.40;;;;;;;14.64;100.00;155072.88;4915214;29;20132;-74
2023/07/18 00:49:43;;;;;;;6.13;1.55;;;;;;;14.66;98.72;155076.75;4918987;29;20039;-74
2023/07/18 00:52:10;;;;;;;9.60;2.03;;;;;;;14.67;98.39;155079.38;4914066;29;20528;-74
2023/07/18 00:54:36;;;;;;;5.95;1.73;;;;;;;14.68;97.78;155081.97;4912740;29;20032;-74
2023/07/18 00:57:02;;;;;;;7.07;1.70;;;;;;;14.64;97.40;155072.88;4915096;29;20046;-74
2023/07/18 00:59:29;;;;;;;10.70;1.43;;;;;;;14.62;97.44;155066.38;4915647;29;20040;-73
2023/07/18 01:01:55;;;;;;;9.45;1.83;;;;;;;14.64;97.62;155072.88;4915815;29;20042;-72
2023/07/18 01:04:21;;;;;;;9.18;2.03;;;;;;;14.73;97.23;155096.22;4912723;29;20071;-72
2023/07/18 01:06:47;;;;;;;8.00;2.20;;;;;;;14.70;96.38;155087.13;4897281;29;20568;-73
2023/07/18 01:09:12;;;;;;;4.57;1.93;;;;;;;14.66;96.51;155076.75;4894399;29;20107;-72
2023/07/18 01:11:38;;;;;;;5.60;1.70;;;;;;;14.63;96.48;155068.97;4914183;29;20028;-72
2023/07/18 01:14:03;;;;;;;6.27;2.13;;;;;;;14.61;96.73;155063.75;4913574;29;20032;-72
2023/07/18 01:16:29;;;;;;;6.23;1.70;;;;;;;14.57;96.60;155054.66;4914392;29;20036;-72
2023/07/18 01:18:55;;;;;;;5.65;1.48;;;;;;;14.52;97.34;155041.69;4915564;29;20038;-72
2023/07/18 01:21:21;;;;;;;7.83;2.10;;;;;;;14.48;97.96;155030.00;4936230;29;20072;-72
2023/07/18 01:23:46;;;;;;;10.38;2.20;;;;;;;14.44;98.03;155019.59;4932340;29;20396;-72
2023/07/18 01:26:13;;;;;;;3.47;1.57;;;;;;;14.43;98.63;155018.34;4933902;29;20042;-71
2023/07/18 01:28:38;;;;;;;7.63;1.83;;;;;;;14.39;98.67;155006.63;4935085;29;20531;-72
2023/07/18 01:31:05;;;;;;;10.07;1.70;;;;;;;14.40;98.83;155010.53;4916168;29;20024;-71
2023/07/18 01:33:30;;;;;;;9.60;1.80;;;;;;;14.37;98.67;155001.44;4932512;29;20028;-71
2023/07/18 01:35:56;;;;;;;4.30;1.87;;;;;;;14.33;99.31;154992.38;4916696;29;20551;-72
2023/07/18 01:38:21;;;;;;;5.77;1.37;;;;;;;14.32;99.59;154988.44;4931600;29;20067;-72
2023/07/18 01:40:46;;;;;;;7.00;1.93;;;;;;;14.30;99.55;154984.56;4934193;29;20083;-72
2023/07/18 01:43:12;;;;;;;7.73;2.00;;;;;;;14.29;99.78;154980.66;4934010;29;20517;-72
2023/07/18 01:45:38;;;;;;;8.63;1.93;;;;;;;14.26;99.28;154972.88;4934517;29;20479;-72
2023/07/18 01:48:03;;;;;;;12.33;2.10;;;;;;;14.33;99.20;154992.38;4933677;29;20027;-72
2023/07/18 01:50:29;;;;;;;5.53;1.80;;;;;;;14.31;99.36;154985.88;4925159;29;20029;-72
2023/07/18 01:52:55;;;;;;;4.82;1.70;;;;;;;14.28;99.55;154979.38;4933449;29;20395;-72
2023/07/18 01:55:20;;;;;;;6.77;2.27;;;;;;;14.24;99.67;154967.72;4933994;29;20039;-72
2023/07/18 01:57:48;;;;;;;10.83;1.73;;;;;;;14.23;99.76;154966.38;4916240;29;20032;-71
2023/07/18 02:00:19;;;;;;;5.07;1.70;;;;;;;14.17;100.00;154949.44;4933377;29;20110;-72
2023/07/18 02:02:49;;;;;;;6.47;1.60;;;;;;;14.13;100.00;154939.03;4932693;29;20023;-72
2023/07/18 02:05:20;;;;;;;5.75;2.30;;;;;;;14.09;100.00;154928.69;4932806;29;20106;-73
2023/07/18 02:07:46;;;;;;;6.40;2.17;;;;;;;14.09;100.00;154928.69;4931665;29;20038;-73
2023/07/18 02:10:13;;;;;;;8.88;2.72;;;;;;;14.05;100.00;154918.31;4933322;29;20110;-72
2023/07/18 02:12:39;;;;;;;;;;;;;;;13.97;100.00;154897.50;4933526;29;20035;-73
2023/07/18 02:15:05;;;;;;;4.72;1.73;;;;;;;13.89;100.00;154876.75;4932475;29;20279;-73
2023/07/18 02:17:32;;;;;;;8.67;2.00;;;;;;;13.84;100.00;154865.09;4916808;29;20060;-73
2023/07/18 02:19:58;;;;;;;4.78;1.80;;;;;;;13.83;100.00;154862.47;4895539;29;20029;-73
2023/07/18 02:22:23;;;;;;;3.33;1.83;;;;;;;13.78;100.00;154849.47;4913333;29;20028;-73
2023/07/18 02:24:49;;;;;;;8.17;1.80;;;;;;;13.77;100.00;154845.63;4913282;29;20485;-73
2023/07/18 02:27:14;;;;;;;8.47;2.03;;;;;;;13.73;100.00;154835.22;4893887;29;20110;-73
2023/07/18 02:29:40;;;;;;;6.23;1.70;;;;;;;13.80;100.00;154854.72;4896886;29;20052;-72
2023/07/18 02:32:05;;;;;;;6.23;1.97;;;;;;;13.85;100.00;154867.69;4913457;29;20111;-71
2023/07/18 02:34:30;;;;;;;4.57;2.03;;;;;;;13.93;100.00;154887.16;4911511;29;20028;-73
2023/07/18 02:36:56;;;;;;;11.27;2.53;;;;;;;13.97;100.00;154897.50;4896194;29;20447;-73
2023/07/18 02:39:22;;;;;;;11.30;2.27;;;;;;;13.98;100.00;154900.16;4911723;29;20465;-73
2023/07/18 02:41:47;;;;;;;7.40;2.30;;;;;;;14.02;100.00;154911.81;4914166;29;20397;-73
2023/07/18 02:44:15;;;;;;;14.47;2.60;;;;;;;13.93;100.00;154888.44;4913869;29;20450;-74
2023/07/18 02:46:41;;;;;;;6.70;1.90;;;;;;;13.91;100.00;154881.94;4914303;29;20037;-71
2023/07/18 02:49:07;;;;;;;6.80;2.40;;;;;;;13.91;100.00;154883.25;4915742;29;20038;-71
2023/07/18 02:51:32;;;;;;;10.20;2.23;;;;;;;13.86;100.00;154870.28;4916720;29;20500;-70
2023/07/18 02:53:58;;;;;;;5.57;2.70;;;;;;;13.89;100.00;154876.75;4918373;29;20451;-70
2023/07/18 02:56:23;;;;;;;15.83;2.77;;;;;;;13.92;100.00;154885.84;4899550;29;20151;-70
2023/07/18 02:58:49;;;;;;;7.07;2.73;;;;;;;13.94;100.00;154889.75;4918330;29;20385;-71
2023/07/18 03:01:18;;;;;;;10.80;3.13;;;;;;;13.96;100.00;154894.91;4916733;29;20398;-71
2023/07/18 03:03:44;;;;;;;8.02;3.30;;;;;;;13.88;100.00;154874.19;4917809;29;20032;-71
2023/07/18 03:06:09;;;;;;;9.10;2.77;;;;;;;13.85;100.00;154867.69;4916738;29;20507;-71
2023/07/18 03:08:36;;;;;;;14.00;2.83;;;;;;;13.89;100.00;154876.75;4903144;29;20055;-71
2023/07/18 03:11:02;;;;;;;;;;;;;;;13.82;100.00;154858.63;4918290;29;20025;-71
2023/07/18 03:13:27;;;;;;;10.80;3.13;;;;;;;13.76;100.00;154843.03;4920092;29;19973;-71
2023/07/18 03:15:54;;;;;;;11.27;3.37;;;;;;;13.70;100.00;154828.75;4918792;29;20048;-71
2023/07/18 03:18:20;;;;;;;14.20;3.42;;;;;;;13.68;100.00;154822.25;4917340;29;20031;-72
2023/07/18 03:20:45;;;;;;;8.67;2.87;;;;;;;13.60;100.00;154801.53;4917006;29;20523;-70
2023/07/18 03:23:11;;;;;;;12.87;2.63;;;;;;;13.53;100.00;154784.63;4900341;29;20032;-70
2023/07/18 03:25:36;;;;;;;11.23;2.47;;;;;;;13.49;100.00;154772.91;4917217;29;20028;-70
2023/07/18 03:28:02;;;;;;;8.30;2.97;;;;;;;13.39;100.00;154747.03;4912301;29;20063;-71
2023/07/18 03:30:28;;;;;;;6.68;2.80;;;;;;;13.31;100.00;154726.25;4910783;29;20027;-71
2023/07/18 03:32:53;;;;;;;8.73;3.50;;;;;;;13.25;100.00;154712.00;4915810;29;20681;-70
2023/07/18 03:35:19;;;;;;;11.13;3.30;;;;;;;13.17;100.00;154691.22;4907678;29;20028;-70
2023/07/18 03:37:44;;;;;;;6.60;3.00;;;;;;;13.13;100.00;154680.81;4897148;29;20031;-70
2023/07/18 03:40:11;;;;;;;9.03;2.50;;;;;;;13.08;100.00;154667.84;4918459;29;20032;-71
2023/07/18 03:42:36;;;;;;;7.30;2.50;;;;;;;13.06;100.00;154662.69;4917418;29;20115;-71
2023/07/18 03:45:03;;;;;;;13.33;3.53;;;;;;;13.08;100.00;154667.84;4916683;29;20115;-72
2023/07/18 03:47:28;;;;;;;29.95;7.45;;;;;;;13.10;100.00;154671.75;4921165;29;20484;-71
2023/07/18 03:49:54;;;;;;;9.60;3.20;;;;;;;13.07;100.00;154664.00;4919082;29;20087;-71
2023/07/18 03:52:19;;;;;;;8.50;3.30;;;;;;;12.99;100.00;154643.22;4916403;29;20020;-70
2023/07/18 03:54:45;;;;;;;17.13;3.37;;;;;;;13.02;100.00;154652.28;4917018;29;20572;-71
2023/07/18 03:57:11;;;;;;;7.83;2.70;;;;;;;12.99;100.00;154644.53;4916032;29;20167;-71
2023/07/18 03:59:36;;;;;;;11.32;3.75;;;;;;;13.07;100.00;154664.00;4914792;29;20404;-71
2023/07/18 04:02:02;;;;;;;9.70;3.03;;;;;;;13.12;100.00;154676.97;4916913;29;20249;-71
2023/07/18 04:04:27;;;;;;;6.10;2.60;;;;;;;13.08;100.00;154667.84;4902615;29;20369;-71
2023/07/18 04:06:53;;;;;;;8.57;3.47;;;;;;;13.04;100.00;154656.19;4898879;29;20163;-71
2023/07/18 04:09:19;;;;;;;18.93;3.57;;;;;;;13.04;100.00;154656.19;4915915;29;20116;-71
2023/07/18 04:11:46;;;;;;;10.35;3.15;;;;;;;13.09;100.00;154669.16;4917226;29;20111;-71
2023/07/18 04:14:11;;;;;;;11.02;3.28;;;;;;;13.11;100.00;154675.66;4915396;29;20032;-71
2023/07/18 04:16:37;;;;;;;7.47;3.17;;;;;;;13.13;100.00;154679.56;4914710;29;20040;-70
2023/07/18 04:19:03;;;;;;;10.20;2.67;;;;;;;13.13;100.00;154680.81;4897540;29;20059;-71
2023/07/18 04:21:29;;;;;;;13.20;4.17;;;;;;;13.15;100.00;154686.03;4899719;29;20043;-71
2023/07/18 04:23:54;;;;;;;8.00;3.10;;;;;;;13.29;100.00;154721.06;4910441;29;20550;-70
2023/07/18 04:26:19;;;;;;;9.57;4.10;;;;;;;13.38;100.00;154744.38;4913400;29;20039;-70
2023/07/18 04:28:45;;;;;;;9.53;3.30;;;;;;;13.41;100.00;154753.50;4896295;29;20082;-71
2023/07/18 04:31:11;;;;;;;13.83;3.87;;;;;;;13.53;100.00;154784.63;4914140;29;20020;-71
2023/07/18 04:33:37;;;;;;;13.80;4.77;;;;;;;13.67;100.00;154820.94;4915925;29;20055;-71
2023/07/18 04:36:05;;;;;;;11.38;3.72;;;;;;;13.77;100.00;154845.63;4915539;29;20044;-71
2023/07/18 04:38:31;;;;;;;8.07;3.90;;;;;;;13.95;100.00;154892.34;4917074;29;20075;-71
2023/07/18 04:40:56;;;;;;;19.70;3.93;;;;;;;14.07;100.00;154923.47;4914758;29;20119;-71
2023/07/18 04:43:22;;;;;;;11.13;3.90;;;;;;;14.23;100.00;154965.06;4905458;29;20476;-71
2023/07/18 04:45:47;;;;;;;11.33;4.30;;;;;;;14.39;100.00;155006.63;4914465;29;20389;-71
2023/07/18 04:48:14;;;;;;;11.03;3.53;;;;;;;14.54;100.00;155045.59;4915749;29;20444;-71
2023/07/18 04:50:41;;;;;;;;;;;;;;;14.69;100.00;155085.88;4899214;29;20040;-71
2023/07/18 04:53:07;;;;;;;17.52;4.55;;;;;;;14.77;100.00;155106.63;4914938;29;19915;-71
2023/07/18 04:55:34;;;;;;;16.17;3.63;;;;;;;14.81;100.00;155115.72;4900862;29;20038;-71
2023/07/18 04:58:00;;;;;;;12.30;3.78;;;;;;;14.93;100.00;155148.19;4897460;29;20036;-71
2023/07/18 05:00:28;;;;;;;10.18;3.58;;;;;;;14.97;100.00;155158.59;4914384;29;20079;-71
2023/07/18 05:02:53;;;;;;;13.07;3.85;;;;;;;15.09;100.00;155189.78;4914767;29;20048;-71
2023/07/18 05:05:19;;;;;;;16.77;5.13;;;;;;;15.22;100.00;155222.25;4915334;29;20034;-71
2023/07/18 05:07:46;;;;;;;10.52;3.10;;;;;;;15.40;100.00;155270.38;4901940;29;20028;-71
2023/07/18 05:10:12;;;;;;;15.65;4.22;;;;;;;15.47;100.00;155288.56;4915013;29;20481;-71
2023/07/18 05:12:38;;;;;;;15.57;3.50;;;;;;;15.48;100.00;155291.16;4912352;29;20028;-71
2023/07/18 05:15:04;;;;;;;15.57;4.40;;;;;;;15.48;100.00;155289.88;4913955;29;20032;-71
2023/07/18 05:17:30;;;;;;;19.13;4.50;;;;;;;15.60;100.00;155322.38;4896506;29;20504;-71
2023/07/18 05:19:55;;;;;;;13.77;4.10;;;;;;;15.74;99.97;155358.75;4914788;29;20063;-71
2023/07/18 05:22:21;;;;;;;8.27;3.30;;;;;;;15.81;100.00;155376.97;4895781;29;20063;-71
2023/07/18 05:24:46;;;;;;;10.63;4.10;;;;;;;15.97;99.97;155418.59;4897439;29;20028;-71
2023/07/18 05:27:12;;;;;;;14.13;3.77;;;;;;;16.06;98.93;155440.69;4915409;29;20063;-71
2023/07/18 05:29:37;;;;;;;10.83;3.73;;;;;;;16.19;98.84;155474.47;4915619;29;20062;-70
2023/07/18 05:32:03;;;;;;;14.40;3.97;;;;;;;16.24;98.94;155488.78;4915745;29;20496;-70
2023/07/18 05:34:28;;;;;;;18.73;4.40;;;;;;;16.16;98.55;155466.69;4916882;29;20103;-71
2023/07/18 05:36:53;;;;;;;19.13;5.50;;;;;;;16.33;98.90;155510.91;4915058;29;20095;-70
2023/07/18 05:39:19;;;;;;;15.97;3.50;;;;;;;16.27;99.42;155496.56;4913935;29;20043;-71
2023/07/18 05:41:44;;;;;;;19.07;4.30;;;;;;;16.24;98.94;155488.78;4913423;29;20482;-71
2023/07/18 05:44:10;;;;;;;18.57;4.10;;;;;;;16.38;99.83;155525.19;4906046;29;20092;-71
2023/07/18 05:46:35;;;;;;;19.67;4.10;;;;;;;16.56;98.87;155570.75;4895182;29;20032;-70
2023/07/18 05:49:00;;;;;;;26.93;5.00;;;;;;;16.71;98.57;155609.78;4915032;29;20032;-71
2023/07/18 05:51:26;;;;;;;12.33;4.33;;;;;;;16.79;97.45;155630.56;4914058;29;20028;-71
2023/07/18 05:53:51;;;;;;;17.93;5.27;;;;;;;16.82;96.62;155638.41;4913794;29;20087;-70
2023/07/18 05:56:17;;;;;;;17.10;4.50;;;;;;;16.91;96.80;155663.09;4895338;29;20024;-71
2023/07/18 05:58:42;;;;;;;16.33;4.60;;;;;;;17.00;96.08;155685.22;4897021;29;20040;-70
2023/07/18 06:01:12;;;;;;;17.13;4.17;;;;;;;17.08;94.99;155706.06;4908119;29;20032;-71
2023/07/18 06:03:38;;;;;;;18.92;4.90;;;;;;;17.40;94.49;155790.69;4916057;29;20115;-71
2023/07/18 06:06:03;;;;;;;19.43;5.10;;;;;;;17.59;92.66;155840.16;4912749;29;20115;-71
2023/07/18 06:08:28;;;;;;;22.23;4.80;;;;;;;17.66;92.22;155858.38;4913357;29;20024;-70
2023/07/18 06:10:57;;;;;;;21.10;5.60;;;;;;;17.76;91.86;155884.41;4911872;29;20508;-70
2023/07/18 06:13:23;;;;;;;18.50;4.60;;;;;;;17.78;91.66;155888.34;4914697;29;20115;-70
2023/07/18 06:15:50;;;;;;;21.58;5.47;;;;;;;17.88;90.73;155914.38;4897037;29;20119;-70
2023/07/18 06:18:16;;;;;;;27.20;6.45;;;;;;;18.27;90.60;156015.94;4913524;29;20091;-70
2023/07/18 06:20:41;;;;;;;31.57;6.90;;;;;;;18.83;88.79;156161.91;4914333;29;20036;-71
2023/07/18 06:23:07;;;;;;;20.80;6.13;;;;;;;19.48;86.09;156331.38;4912078;29;20056;-71
2023/07/18 06:25:33;;;;;;;23.33;6.67;;;;;;;20.20;81.97;156519.19;4912787;29;20024;-71
2023/07/18 06:27:58;;;;;;;35.43;9.27;;;;;;;21.11;77.59;156756.69;4913832;29;20024;-71
2023/07/18 06:30:23;;;;;;;27.20;8.37;;;;;;;20.86;77.01;156691.44;4913027;29;20512;-71
2023/07/18 06:32:49;;;;;;;26.03;6.90;;;;;;;21.06;75.88;156743.66;4912309;29;20073;-71
2023/07/18 06:35:15;;;;;;;27.90;7.82;;;;;;;21.45;73.69;156846.78;4913560;29;20036;-71
2023/07/18 06:37:41;;;;;;;30.80;7.40;;;;;;;22.06;71.23;157004.84;4910654;29;20126;-71
2023/07/18 06:40:10;;;;;;;22.73;8.00;;;;;;;22.55;70.03;157134.22;4910368;29;20032;-70
2023/07/18 06:42:36;;;;;;;22.85;7.70;;;;;;;22.42;70.81;157098.91;4913439;29;20058;-71
2023/07/18 06:45:03;;;;;;;23.00;7.97;;;;;;;23.08;68.74;157271.44;4913082;29;20031;-71
2023/07/18 06:47:29;;;;;;;24.05;7.07;;;;;;;23.07;66.24;157270.16;4911131;29;20408;-71
2023/07/18 06:49:55;;;;;;;23.10;8.37;;;;;;;23.02;66.45;157255.75;4911770;29;20028;-70
2023/07/18 06:52:20;;;;;;;22.20;8.55;;;;;;;22.80;67.43;157198.25;4911147;29;20095;-71
2023/07/18 06:54:46;;;;;;;21.75;8.13;;;;;;;23.31;65.36;157331.66;4909220;29;20039;-71
2023/07/18 06:57:14;;;;;;;24.43;8.73;;;;;;;23.42;65.38;157360.41;4905388;29;20503;-71
2023/07/18 06:59:40;;;;;;;20.83;7.78;;;;;;;23.27;64.96;157322.44;4911225;29;20068;-71
2023/07/18 07:02:05;;;;;;;22.10;8.57;;;;;;;23.49;64.52;157378.69;4908251;29;20036;-71
2023/07/18 07:04:31;;;;;;;20.85;8.45;;;;;;;23.43;64.34;157364.28;4911113;29;20504;-71
2023/07/18 07:06:56;;;;;;;25.97;9.23;;;;;;;22.98;65.83;157246.59;4913269;29;20032;-71
2023/07/18 07:09:22;;;;;;;17.88;8.23;;;;;;;22.95;65.86;157237.47;4907292;29;20074;-71
2023/07/18 07:11:48;;;;;;;28.07;8.97;;;;;;;23.21;66.14;157306.78;4910057;29;20051;-71
2023/07/18 07:14:13;;;;;;;27.80;10.15;;;;;;;22.86;66.43;157213.94;4908273;29;20047;-70
2023/07/18 07:16:39;;;;;;;23.93;10.13;;;;;;;22.65;67.15;157159.03;4913293;29;20059;-71
2023/07/18 07:19:05;;;;;;;31.52;9.45;;;;;;;22.51;68.45;157122.50;4911760;29;20493;-71
2023/07/18 07:21:31;;;;;;;29.80;10.15;;;;;;;22.31;67.44;157070.16;4914579;29;20393;-71
2023/07/18 07:23:56;;;;;;;31.05;11.35;;;;;;;22.67;68.79;157164.31;4910523;29;20086;-70
2023/07/18 07:26:22;;;;;;;27.58;10.77;;;;;;;22.48;69.37;157114.63;4912541;29;20032;-71
2023/07/18 07:28:47;;;;;;;23.33;9.27;;;;;;;22.87;68.14;157216.53;4912983;29;20024;-71
2023/07/18 07:31:14;;;;;;;25.30;10.63;;;;;;;22.69;68.04;157170.84;4911516;29;20024;-71
2023/07/18 07:33:40;;;;;;;23.00;9.73;;;;;;;22.95;66.46;157237.47;4912385;29;20028;-71
2023/07/18 07:36:06;;;;;;;27.77;10.43;;;;;;;22.93;68.26;157232.22;4916930;29;20035;-71
2023/07/18 07:38:32;;;;;;;24.77;9.15;;;;;;;23.07;68.74;157270.16;4917916;29;20469;-71
2023/07/18 07:40:57;;;;;;;24.10;8.93;;;;;;;23.43;65.72;157363.00;4920429;29;20036;-70
2023/07/18 07:43:23;;;;;;;29.10;10.33;;;;;;;23.14;65.67;157287.09;4918144;29;20481;-70
2023/07/18 07:45:48;;;;;;;25.87;9.57;;;;;;;23.03;67.59;157258.34;4916729;29;20381;-70
2023/07/18 07:48:13;;;;;;;18.90;8.00;;;;;;;23.35;65.96;157342.06;4917242;29;20036;-70
2023/07/18 07:50:39;;;;;;;23.57;8.13;;;;;;;23.18;67.08;157297.63;4917411;29;20091;-70
2023/07/18 07:53:04;;;;;;;14.20;6.97;;;;;;;23.18;65.91;157298.97;4916588;29;20032;-70
2023/07/18 07:55:30;;;;;;;23.60;8.73;;;;;;;23.44;65.81;157365.63;4910865;29;20035;-70
2023/07/18 07:57:55;;;;;;;23.73;8.00;;;;;;;23.30;66.17;157330.31;4912741;29;20024;-70
2023/07/18 08:00:21;;;;;;;19.73;7.43;;;;;;;23.07;66.83;157270.16;4913538;29;20032;-70
2023/07/18 08:02:46;;;;;;;16.57;7.00;;;;;;;23.01;67.03;157253.16;4917097;29;20063;-70
2023/07/18 08:05:12;;;;;;;18.83;6.70;;;;;;;22.83;67.83;157206.13;4917073;29;20048;-70
2023/07/18 08:07:39;;;;;;;25.33;7.10;;;;;;;23.03;66.50;157258.34;4914629;29;20274;-70
2023/07/18 08:10:05;;;;;;;18.90;6.88;;;;;;;22.64;68.35;157156.44;4913545;29;20032;-70
2023/07/18 08:12:30;;;;;;;16.15;5.82;;;;;;;22.43;67.97;157102.84;4915734;29;20196;-70
2023/07/18 08:14:56;;;;;;;18.37;6.30;;;;;;;22.67;68.34;157164.31;4916022;29;20115;-71
2023/07/18 08:17:21;;;;;;;16.50;5.97;;;;;;;22.54;68.32;157130.28;4914416;29;20055;-71
2023/07/18 08:19:47;;;;;;;17.03;5.77;;;;;;;22.76;67.71;157189.13;4915976;29;20047;-70
2023/07/18 08:22:13;;;;;;;14.00;6.00;;;;;;;23.04;66.67;157261.00;4914930;29;20032;-71
2023/07/18 08:24:39;;;;;;;19.92;5.28;;;;;;;22.97;67.66;157242.69;4916239;29;20043;-70
2023/07/18 08:27:05;;;;;;;13.52;5.13;;;;;;;22.85;66.82;157211.31;4909573;29;20028;-71
2023/07/18 08:29:30;;;;;;;13.18;5.88;;;;;;;22.90;67.02;157225.69;4912421;29;20174;-71
2023/07/18 08:31:56;;;;;;;19.57;5.50;;;;;;;22.54;68.24;157131.63;4911881;29;20036;-71
2023/07/18 08:34:22;;;;;;;16.05;4.85;;;;;;;22.60;67.25;157145.97;4913046;29;20071;-71
2023/07/18 08:36:47;;;;;;;17.77;5.43;;;;;;;22.34;69.06;157077.97;4910336;29;20036;-71
2023/07/18 08:39:14;;;;;;;15.23;4.50;;;;;;;22.70;66.56;157173.44;4914253;29;20043;-71
2023/07/18 08:41:46;;;;;;;10.18;4.50;;;;;;;22.67;66.63;157165.56;4914501;29;20043;-70
2023/07/18 08:44:16;;;;;;;15.52;5.50;;;;;;;22.48;66.07;157115.94;4911048;29;20043;-70
2023/07/18 08:46:45;;;;;;;11.68;4.70;;;;;;;22.66;65.07;157161.66;4912929;29;20392;-70
2023/07/18 08:49:14;;;;;;;19.15;4.20;;;;;;;22.74;65.31;157183.84;4915379;29;20496;-70
2023/07/18 08:51:43;;;;;;;14.13;4.72;;;;;;;22.88;65.81;157220.47;4915121;29;20028;-70
2023/07/18 08:54:10;;;;;;;16.77;4.78;;;;;;;22.80;66.22;157199.59;4909035;29;20057;-73
2023/07/18 08:56:40;;;;;;;19.02;5.82;;;;;;;22.85;66.91;157211.31;4912412;29;20047;-74
2023/07/18 08:59:06;;;;;;;16.92;5.57;;;;;;;22.75;67.30;157186.50;4913584;29;20032;-73
2023/07/18 09:01:31;;;;;;;19.05;4.95;;;;;;;23.01;67.67;157253.16;4912450;29;20027;-75
2023/07/18 09:09:14;;;;;;;16.75;4.82;;;;;;;23.61;63.08;157410.06;5845768;23;22144;-77
2023/07/18 09:11:55;;;;;;;21.88;5.43;;;;;;;23.89;62.32;157483.31;4940873;23;20055;-72
2023/07/18 09:14:32;;;;;;;17.80;4.47;;;;;;;24.13;62.21;157547.47;4931042;29;20129;-72
2023/07/18 09:17:03;;;;;;;15.80;4.53;;;;;;;24.35;61.05;157605.00;4933177;29;20093;-72
2023/07/18 09:19:35;;;;;;;10.90;4.15;;;;;;;24.17;61.76;157556.63;4933436;29;20035;-72
2023/07/18 09:22:01;;;;;;;15.20;4.20;;;;;;;23.73;61.06;157441.44;4932385;29;20090;-71
2023/07/18 09:24:35;;;;;;;16.73;3.97;;;;;;;23.01;63.41;157253.16;4932680;29;20035;-72
2023/07/18 09:27:02;;;;;;;13.05;4.15;;;;;;;23.33;63.04;157336.84;4915952;29;20067;-71
2023/07/18 09:29:28;;;;;;;12.70;3.40;;;;;;;23.50;61.90;157381.28;4929429;29;20404;-71
2023/07/18 09:31:54;;;;;;;10.70;3.50;;;;;;;23.42;60.52;157361.69;4915911;29;20023;-71
2023/07/18 09:34:19;;;;;;;11.00;3.15;;;;;;;24.00;60.10;157513.44;4914757;29;20091;-71
2023/07/18 09:37:03;;;;;;;13.13;3.50;;;;;;;24.26;59.57;157580.13;4932487;29;20122;-71
2023/07/18 09:39:29;;;;;;;14.82;4.35;;;;;;;24.22;59.29;157569.69;4932528;29;20122;-71
2023/07/18 09:41:55;;;;;;;12.02;3.10;;;;;;;24.39;59.22;157614.16;4931973;29;20109;-71
2023/07/18 09:44:21;;;;;;;;;;;;;;;24.39;57.68;157614.16;4921555;29;20109;-71
2023/07/18 09:46:47;;;;;;;9.20;3.67;;;;;;;23.86;59.80;157475.47;4933346;29;19915;-71
2023/07/18 09:49:14;;;;;;;12.67;3.77;;;;;;;23.71;62.01;157436.22;4914865;29;20091;-70
2023/07/18 09:51:43;;;;;;;13.68;3.83;;;;;;;23.34;62.65;157339.47;4916931;29;20138;-71
2023/07/18 09:54:11;;;;;;;9.90;3.88;;;;;;;23.69;62.97;157431.00;4932356;29;20365;-71
2023/07/18 09:56:39;;;;;;;14.50;3.22;;;;;;;23.75;62.14;157447.97;4928885;29;20023;-71
2023/07/18 09:59:08;;;;;;;7.95;2.38;;;;;;;23.81;59.96;157462.38;4911639;29;20035;-71
2023/07/18 10:01:34;;;;;;;9.95;2.70;;;;;;;23.94;59.17;157497.75;4929057;29;20032;-71
2023/07/18 10:04:00;;;;;;;10.13;2.65;;;;;;;23.53;59.43;157389.16;4933504;29;20040;-71
2023/07/18 10:06:26;;;;;;;12.17;3.43;;;;;;;23.91;58.91;157488.59;4933587;29;20035;-72
2023/07/18 10:08:53;;;;;;;7.93;2.25;;;;;;;23.71;57.00;157436.22;4933183;29;20244;-73
2023/07/18 10:11:19;;;;;;;10.15;2.63;;;;;;;24.10;58.21;157539.59;4914534;29;20059;-72
2023/07/18 10:14:07;;;;;;;6.97;2.60;;;;;;;24.13;57.54;157547.47;4909787;29;20083;-72
2023/07/18 10:16:35;;;;;;;6.68;2.00;;;;;;;24.50;56.54;157642.94;4900893;29;20719;-72
2023/07/18 10:19:17;;;;;;;14.73;3.00;;;;;;;24.56;57.06;157659.97;4911101;29;20031;-71
2023/07/18 10:21:45;;;;;;;12.10;2.50;;;;;;;24.63;56.71;157677.00;4909430;29;20044;-72
2023/07/18 10:24:24;;;;;;;10.70;2.78;;;;;;;24.58;54.65;157663.91;4908514;29;20036;-72
2023/07/18 10:27:06;;;;;;;7.35;2.08;;;;;;;24.97;55.26;157766.00;4908553;29;20111;-71
2023/07/18 10:29:31;;;;;;;10.15;2.35;;;;;;;24.85;53.61;157734.56;4914200;29;20446;-72
2023/07/18 10:31:59;;;;;;;9.32;1.80;;;;;;;25.08;54.14;157794.81;4909893;29;20030;-72
2023/07/18 10:34:24;;;;;;;10.00;2.72;;;;;;;25.40;52.74;157879.91;4908228;29;20039;-72
2023/07/18 10:37:01;;;;;;;9.20;2.07;;;;;;;25.41;52.40;157881.25;4911281;29;20023;-72
2023/07/18 10:39:49;;;;;;;7.90;2.25;;;;;;;25.56;52.98;157920.53;4911415;29;20057;-72
2023/07/18 10:42:20;;;;;;;9.90;2.33;;;;;;;25.16;52.56;157815.72;4917033;29;20076;-71
2023/07/18 10:44:47;;;;;;;14.00;2.75;;;;;;;25.53;51.41;157912.66;4913185;29;20376;-72
2023/07/18 10:47:12;;;;;;;;;;;;;;;25.04;54.15;157784.31;4912783;29;20024;-71
2023/07/18 10:49:38;;;;;;;9.45;2.17;;;;;;;25.64;51.06;157941.47;4910497;29;20339;-71
2023/07/18 10:52:03;;;;;;;10.38;2.25;;;;;;;24.88;52.89;157742.44;4921079;29;20401;-72
2023/07/18 10:54:29;;;;;;;10.70;2.53;;;;;;;24.95;54.63;157760.75;4913579;29;20036;-72
2023/07/18 10:56:54;;;;;;;6.17;1.90;;;;;;;25.29;53.01;157849.84;4912642;29;20107;-72
2023/07/18 10:59:20;;;;;;;7.93;2.13;;;;;;;25.23;53.26;157835.38;4912502;29;20032;-72
2023/07/18 11:01:46;;;;;;;15.03;3.17;;;;;;;25.22;53.17;157831.44;4911920;29;20053;-72
2023/07/18 11:04:12;;;;;;;;;;;;;;;25.56;50.64;157920.53;4911115;29;20024;-72
2023/07/18 11:06:48;;;;;;;8.13;1.90;;;;;;;25.92;50.84;158014.88;4912805;29;19915;-72
2023/07/18 11:09:13;;;;;;;9.10;2.30;;;;;;;25.19;50.62;157823.59;4924907;29;20028;-71
2023/07/18 11:11:39;;;;;;;6.35;2.22;;;;;;;24.66;52.43;157686.16;4914666;29;20039;-72
2023/07/18 11:14:04;;;;;;;10.63;2.78;;;;;;;24.17;52.09;157557.88;4916643;29;20036;-71
2023/07/18 11:16:30;;;;;;;8.53;2.27;;;;;;;24.70;53.25;157696.63;4915096;29;20039;-72
2023/07/18 11:18:55;;;;;;;5.83;1.63;;;;;;;24.69;49.30;157692.69;4916860;29;20036;-72
2023/07/18 11:21:21;;;;;;;12.27;2.90;;;;;;;24.85;51.18;157734.56;4916118;29;20111;-73